Time;durP1;ratioP1;P1;durP2;ratioP2;P2;SDS_P1;SDS_P2;PMS_P1;PMS_P2;Temp;Humidity;BMP_temperature;BMP_pressure;BME280_temperature;BME280_humidity;BME280_pressure;Samples;Min_cycle;Max_cycle;Signal;HPM_P1;HPM_P2
2024/02/09 00:00:10;;;;;;;;;6.33;6.33;;;;;;;;5062282;28;9256;-82
2024/02/09 00:02:41;;;;;;;;;7.67;7.00;;;;;;;;5060656;28;9184;-83
2024/02/09 00:05:10;;;;;;;;;6.33;5.00;;;;;;;;5053119;28;9227;-84
2024/02/09 00:07:37;;;;;;;;;6.00;6.00;;;;;;;;5053654;28;9214;-84
2024/02/09 00:10:05;;;;;;;;;5.00;5.00;;;;;;;;5054873;28;9095;-84
2024/02/09 00:12:35;;;;;;;;;7.33;5.67;;;;;;;;5054908;28;9031;-84
2024/02/09 00:15:06;;;;;;;;;8.67;7.00;;;;;;;;5053397;28;9140;-83
2024/02/09 00:17:35;;;;;;;;;6.33;6.00;;;;;;;;5051688;28;9176;-84
2024/02/09 00:20:07;;;;;;;;;7.33;5.00;;;;;;;;5051515;28;9198;-83
2024/02/09 00:22:35;;;;;;;;;6.33;6.33;;;;;;;;5051550;28;9091;-84
2024/02/09 00:25:04;;;;;;;;;5.00;5.00;;;;;;;;5051849;28;9251;-84
2024/02/09 00:27:33;;;;;;;;;4.33;4.33;;;;;;;;5051494;28;9021;-85
2024/02/09 00:30:00;;;;;;;;;9.00;6.00;;;;;;;;5053775;28;9019;-83
2024/02/09 00:32:28;;;;;;;;;5.00;5.00;;;;;;;;5054985;28;8952;-83
2024/02/09 00:34:55;;;;;;;;;4.00;4.00;;;;;;;;5052612;28;9120;-84
2024/02/09 00:37:23;;;;;;;;;5.67;5.67;;;;;;;;5051818;28;9151;-86
2024/02/09 00:39:50;;;;;;;;;6.33;4.33;;;;;;;;5052050;28;9065;-84
2024/02/09 00:42:18;;;;;;;;;6.33;6.33;;;;;;;;5051564;28;9030;-83
2024/02/09 00:44:46;;;;;;;;;3.67;3.67;;;;;;;;5050609;28;9002;-84
2024/02/09 00:47:14;;;;;;;;;6.00;6.00;;;;;;;;5050928;28;9015;-84
2024/02/09 00:49:44;;;;;;;;;8.00;6.67;;;;;;;;5050823;28;9200;-84
2024/02/09 00:52:12;;;;;;;;;6.00;6.00;;;;;;;;5051304;28;9142;-84
2024/02/09 00:54:39;;;;;;;;;6.33;5.00;;;;;;;;5050718;28;9122;-84
2024/02/09 00:57:07;;;;;;;;;5.33;4.00;;;;;;;;5050856;28;9197;-84
2024/02/09 00:59:38;;;;;;;;;11.67;5.00;;;;;;;;5050753;28;9030;-84
2024/02/09 01:02:07;;;;;;;;;8.00;6.67;;;;;;;;5050330;28;9093;-83
2024/02/09 01:04:35;;;;;;;;;4.33;4.00;;;;;;;;5051199;28;9051;-84
2024/02/09 01:07:03;;;;;;;;;4.67;4.67;;;;;;;;5051907;28;8938;-83
2024/02/09 01:09:32;;;;;;;;;5.00;4.33;;;;;;;;5051647;28;9084;-84
2024/02/09 01:11:59;;;;;;;;;4.67;4.67;;;;;;;;5053052;28;9083;-83
2024/02/09 02:44:58;;;;;;;;;4.25;3.00;;;;;;;;5049623;28;8945;-83
2024/02/09 02:47:26;;;;;;;;;3.00;3.00;;;;;;;;5049383;28;8861;-84
2024/02/09 03:06:35;;;;;;;;;4.25;3.25;;;;;;;;5053664;28;8912;-83
2024/02/09 03:09:04;;;;;;;;;2.00;2.00;;;;;;;;5041759;28;8857;-84
2024/02/09 03:11:34;;;;;;;;;3.75;2.50;;;;;;;;5053178;28;8881;-82
2024/02/09 03:14:01;;;;;;;;;3.00;3.00;;;;;;;;5054000;28;8853;-83
2024/02/09 03:16:28;;;;;;;;;2.50;2.50;;;;;;;;5054174;28;8920;-84
2024/02/09 03:18:56;;;;;;;;;4.75;4.00;;;;;;;;5050389;28;8980;-83
2024/02/09 03:21:27;;;;;;;;;3.50;3.00;;;;;;;;5048585;28;8858;-85
2024/02/09 03:23:56;;;;;;;;;5.25;4.00;;;;;;;;5050790;28;8869;-84
2024/02/09 03:26:26;;;;;;;;;4.00;3.00;;;;;;;;5048685;28;8992;-82
2024/02/09 03:28:58;;;;;;;;;2.00;2.00;;;;;;;;5048548;28;8927;-83
2024/02/09 03:31:29;;;;;;;;;3.00;3.00;;;;;;;;5047768;28;8819;-83
2024/02/09 03:33:56;;;;;;;;;3.25;3.00;;;;;;;;5048735;28;8939;-82
2024/02/09 03:36:24;;;;;;;;;2.50;2.50;;;;;;;;5048428;28;8895;-82
2024/02/09 03:38:51;;;;;;;;;8.00;4.75;;;;;;;;5048897;28;8977;-83
2024/02/09 03:41:19;;;;;;;;;2.50;2.50;;;;;;;;5048074;28;9006;-83
2024/02/09 03:43:47;;;;;;;;;5.00;3.00;;;;;;;;5048282;28;9662;-82
2024/02/09 03:46:17;;;;;;;;;1.25;1.25;;;;;;;;5047359;28;8853;-83
2024/02/09 03:48:44;;;;;;;;;2.25;2.25;;;;;;;;5050631;28;9004;-83
2024/02/09 03:51:11;;;;;;;;;3.00;1.75;;;;;;;;5051498;28;8988;-83
2024/02/09 03:53:39;;;;;;;;;7.25;2.00;;;;;;;;5049869;28;8960;-83
2024/02/09 03:56:06;;;;;;;;;2.50;2.50;;;;;;;;5048702;28;8854;-83
2024/02/09 03:58:34;;;;;;;;;4.00;2.25;;;;;;;;5048360;28;8861;-84
2024/02/09 04:01:02;;;;;;;;;1.50;1.50;;;;;;;;5047751;28;8779;-82
2024/02/09 04:03:32;;;;;;;;;3.75;3.75;;;;;;;;5048052;28;8922;-82
2024/02/09 04:06:00;;;;;;;;;3.50;3.00;;;;;;;;5048283;28;8951;-83
2024/02/09 04:08:27;;;;;;;;;4.25;2.75;;;;;;;;5047500;28;8968;-83
2024/02/09 04:10:54;;;;;;;;;4.00;2.50;;;;;;;;5048155;28;8873;-83
2024/02/09 04:13:21;;;;;;;;;3.75;2.50;;;;;;;;5048116;28;8892;-84
2024/02/09 04:15:48;;;;;;;;;3.00;2.75;;;;;;;;5048123;28;9008;-83
2024/02/09 04:18:16;;;;;;;;;2.25;2.00;;;;;;;;5048229;28;8870;-85
2024/02/09 04:20:44;;;;;;;;;1.75;1.75;;;;;;;;5050717;28;8834;-84
2024/02/09 04:23:14;;;;;;;;;2.50;2.50;;;;;;;;5051501;28;8865;-84
2024/02/09 04:25:43;;;;;;;;;2.00;2.00;;;;;;;;5051958;28;8991;-84
2024/02/09 04:28:12;;;;;;;;;3.00;3.00;;;;;;;;5051288;28;8858;-83
2024/02/09 04:30:41;;;;;;;;;2.50;2.50;;;;;;;;5051101;28;8759;-84
2024/02/09 04:33:09;;;;;;;;;3.75;2.25;;;;;;;;5051124;28;8861;-82
2024/02/09 04:35:37;;;;;;;;;3.50;2.00;;;;;;;;5051684;28;8872;-83
2024/02/09 04:38:06;;;;;;;;;5.75;3.00;;;;;;;;5050360;28;8888;-82
2024/02/09 04:40:34;;;;;;;;;5.00;3.00;;;;;;;;5051084;28;8865;-84
2024/02/09 04:43:01;;;;;;;;;2.00;2.00;;;;;;;;5051466;28;8885;-84
2024/02/09 04:45:28;;;;;;;;;2.50;2.50;;;;;;;;5051672;28;8980;-83
2024/02/09 04:47:56;;;;;;;;;2.75;2.75;;;;;;;;5053288;28;8865;-84
2024/02/09 04:50:23;;;;;;;;;5.50;3.50;;;;;;;;5053517;28;8838;-85
2024/02/09 04:52:50;;;;;;;;;2.00;2.00;;;;;;;;5055243;28;9468;-84
2024/02/09 04:55:19;;;;;;;;;2.25;2.25;;;;;;;;5057123;28;9004;-84
2024/02/09 04:57:46;;;;;;;;;4.00;4.00;;;;;;;;5048166;28;8861;-80
2024/02/09 05:00:14;;;;;;;;;2.00;2.00;;;;;;;;5058995;28;8865;-82
2024/02/09 05:02:43;;;;;;;;;6.25;3.00;;;;;;;;5057098;28;8882;-82
2024/02/09 05:05:11;;;;;;;;;2.00;2.00;;;;;;;;5062531;28;8907;-84
2024/02/09 05:07:38;;;;;;;;;2.75;2.75;;;;;;;;5062301;28;8857;-85
2024/02/09 05:10:11;;;;;;;;;3.50;2.75;;;;;;;;5050498;28;8944;-83
2024/02/09 05:12:39;;;;;;;;;3.75;2.75;;;;;;;;5051247;28;8852;-82
2024/02/09 05:15:07;;;;;;;;;3.00;2.00;;;;;;;;5050844;28;8980;-82
2024/02/09 05:17:38;;;;;;;;;3.00;3.00;;;;;;;;5051097;28;8860;-83
2024/02/09 05:20:06;;;;;;;;;1.00;1.00;;;;;;;;5050321;28;8966;-81
2024/02/09 05:22:33;;;;;;;;;5.00;4.00;;;;;;;;5049365;28;8961;-82
2024/02/09 05:25:02;;;;;;;;;2.50;2.50;;;;;;;;5049382;28;8849;-81
2024/02/09 05:27:32;;;;;;;;;2.75;2.75;;;;;;;;5049390;28;8869;-81
2024/02/09 05:30:01;;;;;;;;;3.25;2.00;;;;;;;;5049508;28;8854;-81
2024/02/09 05:32:32;;;;;;;;;2.00;2.00;;;;;;;;5049066;28;8822;-83
2024/02/09 05:35:00;;;;;;;;;2.50;2.50;;;;;;;;5042873;28;8859;-82
2024/02/09 05:37:30;;;;;;;;;4.00;2.25;;;;;;;;5051510;28;9609;-83
2024/02/09 05:39:57;;;;;;;;;2.25;2.25;;;;;;;;5052771;28;8863;-83
2024/02/09 05:42:24;;;;;;;;;3.25;3.25;;;;;;;;5049837;28;8853;-82
2024/02/09 05:44:52;;;;;;;;;4.25;4.25;;;;;;;;5049860;28;8900;-82
2024/02/09 05:47:20;;;;;;;;;4.00;2.00;;;;;;;;5051526;28;8892;-82
2024/02/09 05:49:48;;;;;;;;;3.50;2.50;;;;;;;;5054653;28;9644;-82
2024/02/09 05:52:15;;;;;;;;;2.50;2.50;;;;;;;;5048908;28;8864;-82
2024/02/09 05:54:42;;;;;;;;;4.00;2.00;;;;;;;;5048693;28;8942;-82
2024/02/09 05:57:10;;;;;;;;;3.25;3.25;;;;;;;;5049247;28;8976;-82
2024/02/09 05:59:39;;;;;;;;;3.50;3.00;;;;;;;;5048500;28;8962;-83
2024/02/09 06:02:06;;;;;;;;;2.00;2.00;;;;;;;;5048280;28;8792;-83
2024/02/09 06:04:35;;;;;;;;;3.00;3.00;;;;;;;;5048819;28;8857;-81
2024/02/09 06:07:02;;;;;;;;;3.50;2.00;;;;;;;;5048209;28;9684;-84
2024/02/09 06:09:30;;;;;;;;;3.25;1.75;;;;;;;;5048687;28;9012;-81
2024/02/09 06:11:58;;;;;;;;;2.25;2.00;;;;;;;;5048768;28;8946;-81
2024/02/09 06:14:26;;;;;;;;;2.00;2.00;;;;;;;;5049274;28;9628;-75
2024/02/09 06:16:55;;;;;;;;;3.00;3.00;;;;;;;;5047643;28;8885;-74
2024/02/09 06:19:23;;;;;;;;;3.00;3.00;;;;;;;;5048471;28;8861;-74
2024/02/09 06:21:51;;;;;;;;;2.00;2.00;;;;;;;;5048341;28;9697;-76
2024/02/09 06:24:24;;;;;;;;;3.75;1.75;;;;;;;;5048109;28;8857;-77
2024/02/09 06:26:52;;;;;;;;;4.50;3.25;;;;;;;;5048088;28;8845;-78
2024/02/09 06:29:21;;;;;;;;;2.75;2.75;;;;;;;;5048775;28;8912;-75
2024/02/09 06:31:53;;;;;;;;;3.00;3.00;;;;;;;;5047722;28;8802;-75
2024/02/09 06:34:20;;;;;;;;;2.50;2.50;;;;;;;;5048413;28;8869;-75
2024/02/09 06:36:49;;;;;;;;;1.75;1.75;;;;;;;;5048306;28;9779;-78
2024/02/09 06:39:22;;;;;;;;;0.25;0.00;;;;;;;;5048946;28;8865;-75
2024/02/09 06:41:49;;;;;;;;;2.00;2.00;;;;;;;;5048833;28;8881;-76
2024/02/09 06:44:18;;;;;;;;;1.00;1.00;;;;;;;;5050446;28;8884;-78
2024/02/09 06:46:46;;;;;;;;;2.25;2.25;;;;;;;;5051113;28;8861;-77
2024/02/09 06:49:13;;;;;;;;;2.00;0.50;;;;;;;;5050901;28;9782;-74
2024/02/09 06:51:45;;;;;;;;;2.00;2.00;;;;;;;;5050607;28;8975;-74
2024/02/09 06:54:12;;;;;;;;;2.00;2.00;;;;;;;;5050861;28;9640;-77
2024/02/09 06:56:42;;;;;;;;;2.00;2.00;;;;;;;;5049287;28;8869;-74
2024/02/09 06:59:10;;;;;;;;;3.50;3.50;;;;;;;;5047106;28;8875;-75
2024/02/09 07:01:38;;;;;;;;;2.00;2.00;;;;;;;;5046833;28;9425;-76
2024/02/09 07:04:07;;;;;;;;;2.25;2.25;;;;;;;;5047565;28;8864;-74
2024/02/09 07:06:34;;;;;;;;;3.25;3.00;;;;;;;;5046801;28;8928;-74
2024/02/09 07:09:01;;;;;;;;;7.00;3.50;;;;;;;;5047980;28;8854;-80
2024/02/09 07:11:29;;;;;;;;;3.50;2.00;;;;;;;;5047519;28;8883;-73
2024/02/09 07:13:58;;;;;;;;;4.00;3.00;;;;;;;;5048005;28;8845;-83
2024/02/09 07:16:25;;;;;;;;;2.00;2.00;;;;;;;;5048662;28;8976;-75
2024/02/09 07:18:55;;;;;;;;;2.25;2.25;;;;;;;;5048859;28;8861;-74
2024/02/09 07:21:22;;;;;;;;;4.00;3.00;;;;;;;;5047631;28;8845;-73
2024/02/09 07:23:51;;;;;;;;;2.50;2.50;;;;;;;;5048648;28;8853;-74
2024/02/09 07:26:24;;;;;;;;;5.00;3.00;;;;;;;;5050028;28;8867;-72
2024/02/09 07:28:52;;;;;;;;;2.75;2.75;;;;;;;;5050565;28;8939;-79
2024/02/09 07:31:21;;;;;;;;;2.00;2.00;;;;;;;;5052998;28;8835;-74
2024/02/09 07:33:56;;;;;;;;;1.00;1.00;;;;;;;;5052765;28;8865;-78
2024/02/09 07:36:28;;;;;;;;;4.00;1.50;;;;;;;;5049449;28;8861;-76
2024/02/09 07:38:56;;;;;;;;;2.00;2.00;;;;;;;;5048035;28;9007;-75
2024/02/09 07:41:23;;;;;;;;;3.50;3.00;;;;;;;;5048349;28;8857;-80
2024/02/09 07:43:50;;;;;;;;;1.75;1.75;;;;;;;;5047667;28;8865;-78
2024/02/09 07:46:19;;;;;;;;;3.00;3.00;;;;;;;;5048437;28;8899;-77
2024/02/09 07:48:48;;;;;;;;;3.50;3.50;;;;;;;;5047403;28;8896;-73
2024/02/09 07:51:20;;;;;;;;;2.25;2.00;;;;;;;;5048044;28;8873;-84
2024/02/09 07:53:52;;;;;;;;;1.75;1.75;;;;;;;;5048137;28;8850;-88
2024/02/09 07:56:19;;;;;;;;;2.75;2.00;;;;;;;;5052241;28;8938;-80
2024/02/09 07:58:47;;;;;;;;;2.75;2.75;;;;;;;;5051005;28;8903;-81
2024/02/09 08:01:14;;;;;;;;;4.00;2.50;;;;;;;;5052241;28;8809;-82
2024/02/09 08:03:41;;;;;;;;;4.00;2.00;;;;;;;;5051818;28;8968;-73
2024/02/09 08:06:09;;;;;;;;;3.75;2.00;;;;;;;;5053624;28;8869;-81
2024/02/09 08:08:37;;;;;;;;;1.25;1.25;;;;;;;;5051419;28;8877;-76
2024/02/09 08:11:04;;;;;;;;;2.50;2.00;;;;;;;;5052317;28;8861;-80
2024/02/09 08:13:31;;;;;;;;;2.50;1.25;;;;;;;;5051288;28;8963;-82
2024/02/09 08:16:00;;;;;;;;;1.00;1.00;;;;;;;;5051864;28;9004;-83
2024/02/09 08:18:28;;;;;;;;;2.25;2.25;;;;;;;;5055961;28;8859;-78
2024/02/09 08:20:55;;;;;;;;;1.75;1.75;;;;;;;;5058834;28;8896;-76
2024/02/09 08:23:25;;;;;;;;;3.25;2.00;;;;;;;;5051127;28;8861;-83
2024/02/09 08:25:52;;;;;;;;;1.25;0.50;;;;;;;;5052479;28;8865;-80
2024/02/09 08:28:20;;;;;;;;;3.00;2.00;;;;;;;;5052772;28;8873;-74
2024/02/09 08:30:47;;;;;;;;;3.75;2.75;;;;;;;;5052890;28;8793;-77
2024/02/09 08:33:14;;;;;;;;;1.75;1.75;;;;;;;;5052965;28;8923;-80
2024/02/09 08:35:41;;;;;;;;;1.25;1.25;;;;;;;;5053192;28;8853;-86
2024/02/09 08:38:08;;;;;;;;;2.00;2.00;;;;;;;;5053731;28;8880;-85
2024/02/09 08:40:37;;;;;;;;;2.25;2.25;;;;;;;;5054430;28;8872;-85
2024/02/09 08:43:04;;;;;;;;;2.50;1.00;;;;;;;;5042208;28;8958;-79
2024/02/09 08:45:31;;;;;;;;;1.75;1.75;;;;;;;;5050388;28;8853;-76
2024/02/09 08:48:01;;;;;;;;;2.00;2.00;;;;;;;;5053421;28;8850;-80
2024/02/09 08:50:29;;;;;;;;;1.75;1.75;;;;;;;;5055005;28;8915;-80
2024/02/09 08:52:56;;;;;;;;;3.00;3.00;;;;;;;;5053031;28;8854;-74
2024/02/09 08:55:24;;;;;;;;;3.50;2.00;;;;;;;;5049566;28;8883;-77
2024/02/09 08:57:52;;;;;;;;;1.00;1.00;;;;;;;;5049996;28;8903;-77
2024/02/09 09:00:20;;;;;;;;;2.75;2.75;;;;;;;;5049165;28;8877;-77
2024/02/09 09:02:47;;;;;;;;;2.00;2.00;;;;;;;;5049919;28;9019;-76
2024/02/09 09:05:15;;;;;;;;;4.00;3.50;;;;;;;;5048848;28;8838;-77
2024/02/09 09:07:42;;;;;;;;;4.00;3.50;;;;;;;;5049697;28;8861;-73
2024/02/09 09:10:10;;;;;;;;;3.25;3.25;;;;;;;;5050349;28;8879;-80
2024/02/09 09:12:38;;;;;;;;;4.25;4.00;;;;;;;;5050176;28;8899;-74
2024/02/09 09:15:07;;;;;;;;;2.75;2.75;;;;;;;;5051568;28;9676;-81
2024/02/09 09:17:34;;;;;;;;;5.25;2.00;;;;;;;;5052250;28;8845;-79
2024/02/09 09:20:03;;;;;;;;;2.25;2.00;;;;;;;;5050032;28;9666;-75
2024/02/09 09:22:31;;;;;;;;;2.25;2.25;;;;;;;;5049387;28;8857;-82
2024/02/09 09:24:58;;;;;;;;;2.75;2.75;;;;;;;;5049776;28;8846;-80
2024/02/09 09:27:25;;;;;;;;;1.50;1.50;;;;;;;;5049931;28;8837;-76
2024/02/09 09:29:53;;;;;;;;;3.25;2.75;;;;;;;;5048985;28;8865;-77
2024/02/09 09:32:22;;;;;;;;;2.25;2.25;;;;;;;;5049197;28;8817;-74
2024/02/09 09:34:49;;;;;;;;;1.00;1.00;;;;;;;;5048858;28;9012;-73
2024/02/09 09:37:16;;;;;;;;;2.00;2.00;;;;;;;;5049004;28;8877;-73
2024/02/09 09:39:44;;;;;;;;;2.50;2.50;;;;;;;;5048615;28;8858;-74
2024/02/09 09:42:11;;;;;;;;;1.00;1.00;;;;;;;;5048672;28;8865;-73
2024/02/09 09:44:38;;;;;;;;;1.00;1.00;;;;;;;;5049076;28;8841;-76
2024/02/09 09:47:09;;;;;;;;;1.00;1.00;;;;;;;;5050412;28;8869;-77
2024/02/09 09:49:39;;;;;;;;;1.00;1.00;;;;;;;;5038461;28;8872;-76
2024/02/09 09:52:13;;;;;;;;;1.50;1.50;;;;;;;;5048693;28;8861;-78
2024/02/09 09:54:40;;;;;;;;;3.00;3.00;;;;;;;;5048594;28;8984;-80
2024/02/09 09:57:09;;;;;;;;;4.75;3.00;;;;;;;;5049171;28;8865;-83
2024/02/09 09:59:36;;;;;;;;;1.25;1.25;;;;;;;;5049477;28;8849;-79
2024/02/09 10:02:06;;;;;;;;;2.00;2.00;;;;;;;;5054863;28;8817;-74
2024/02/09 10:04:33;;;;;;;;;1.50;1.50;;;;;;;;5054899;28;8943;-76
2024/02/09 10:07:05;;;;;;;;;4.00;1.50;;;;;;;;5048904;28;9636;-79
2024/02/09 10:09:32;;;;;;;;;1.00;1.00;;;;;;;;5048904;28;8873;-75
2024/02/09 10:11:59;;;;;;;;;1.50;1.50;;;;;;;;5048266;28;8861;-76
2024/02/09 10:14:26;;;;;;;;;1.50;1.00;;;;;;;;5049654;28;8865;-75
2024/02/09 10:16:54;;;;;;;;;1.00;1.00;;;;;;;;5048621;28;8857;-77
2024/02/09 10:19:21;;;;;;;;;3.00;2.00;;;;;;;;5049956;28;8861;-81
2024/02/09 10:21:48;;;;;;;;;1.50;1.25;;;;;;;;5049670;28;8881;-74
2024/02/09 10:24:17;;;;;;;;;1.25;1.00;;;;;;;;5051639;28;8853;-74
2024/02/09 10:26:47;;;;;;;;;2.00;2.00;;;;;;;;5051597;28;8884;-72
2024/02/09 10:29:14;;;;;;;;;4.00;2.00;;;;;;;;5050894;28;8869;-76
2024/02/09 10:31:41;;;;;;;;;1.25;1.25;;;;;;;;5050796;28;8916;-79
2024/02/09 10:34:10;;;;;;;;;1.00;1.00;;;;;;;;5052019;28;8865;-77
2024/02/09 10:36:39;;;;;;;;;0.50;0.25;;;;;;;;5049453;28;8988;-76
2024/02/09 10:39:07;;;;;;;;;2.75;0.00;;;;;;;;5047536;28;8853;-74
2024/02/09 10:41:35;;;;;;;;;2.50;1.00;;;;;;;;5048290;28;8955;-76
2024/02/09 10:44:04;;;;;;;;;0.75;0.75;;;;;;;;5048114;28;8857;-73
2024/02/09 10:46:32;;;;;;;;;3.00;0.00;;;;;;;;5048200;28;8872;-77
2024/02/09 10:49:05;;;;;;;;;1.50;0.75;;;;;;;;5047797;28;8891;-76
2024/02/09 10:51:35;;;;;;;;;0.50;0.50;;;;;;;;5048202;28;8849;-77
2024/02/09 10:54:09;;;;;;;;;0.00;0.00;;;;;;;;5047427;28;8849;-77
2024/02/09 10:56:39;;;;;;;;;2.00;0.00;;;;;;;;5047760;28;8845;-78
2024/02/09 10:59:07;;;;;;;;;0.00;0.00;;;;;;;;5046801;28;8857;-75
2024/02/09 11:01:36;;;;;;;;;2.00;0.00;;;;;;;;5047776;28;8782;-76
2024/02/09 11:04:03;;;;;;;;;1.75;1.75;;;;;;;;5048700;28;8861;-73
2024/02/09 11:06:31;;;;;;;;;0.00;0.00;;;;;;;;5048336;28;8841;-78
2024/02/09 11:08:58;;;;;;;;;0.00;0.00;;;;;;;;5048451;28;9631;-76
2024/02/09 11:11:30;;;;;;;;;0.50;0.50;;;;;;;;5048216;28;9667;-75
2024/02/09 11:14:09;;;;;;;;;3.00;0.00;;;;;;;;5050693;28;8946;-81
2024/02/09 11:16:44;;;;;;;;;0.00;0.00;;;;;;;;5052324;28;9593;-77
2024/02/09 11:19:13;;;;;;;;;0.75;0.75;;;;;;;;5051216;28;8845;-79
2024/02/09 11:21:47;;;;;;;;;0.50;0.25;;;;;;;;5053316;28;8846;-77
2024/02/09 11:24:15;;;;;;;;;1.75;0.25;;;;;;;;5047883;28;8846;-80
2024/02/09 11:26:47;;;;;;;;;1.00;1.00;;;;;;;;5048659;28;8865;-73
2024/02/09 11:29:17;;;;;;;;;0.50;0.50;;;;;;;;5050950;28;8850;-79
2024/02/09 11:31:49;;;;;;;;;0.75;0.00;;;;;;;;5052158;28;8802;-73
2024/02/09 11:34:21;;;;;;;;;0.00;0.00;;;;;;;;5055624;28;8849;-74
2024/02/09 11:36:48;;;;;;;;;0.00;0.00;;;;;;;;5057173;28;8881;-76
2024/02/09 11:39:22;;;;;;;;;2.00;0.00;;;;;;;;5056447;28;8850;-78
2024/02/09 11:41:49;;;;;;;;;1.00;1.00;;;;;;;;5051824;28;9679;-75
2024/02/09 11:44:18;;;;;;;;;0.00;0.00;;;;;;;;5050877;28;8889;-80
2024/02/09 11:46:46;;;;;;;;;1.50;0.00;;;;;;;;5051650;28;8880;-78
2024/02/09 11:49:14;;;;;;;;;2.00;0.25;;;;;;;;5051126;28;8845;-76
2024/02/09 11:51:42;;;;;;;;;0.75;0.75;;;;;;;;5051826;28;8865;-77
2024/02/09 11:54:09;;;;;;;;;1.00;1.00;;;;;;;;5050929;28;8979;-75
2024/02/09 11:56:36;;;;;;;;;0.00;0.00;;;;;;;;5053173;28;8857;-78
2024/02/09 11:59:04;;;;;;;;;1.00;1.00;;;;;;;;5051531;28;9608;-80
2024/02/09 12:01:33;;;;;;;;;0.25;0.00;;;;;;;;5051208;28;9664;-78
2024/02/09 12:04:00;;;;;;;;;1.25;1.00;;;;;;;;5052212;28;8881;-79
2024/02/09 12:06:31;;;;;;;;;0.75;0.75;;;;;;;;5052833;28;8876;-80
2024/02/09 12:09:01;;;;;;;;;3.75;1.00;;;;;;;;5042373;28;8871;-77
2024/02/09 12:11:31;;;;;;;;;0.50;0.00;;;;;;;;5053876;28;8892;-75
2024/02/09 12:13:59;;;;;;;;;1.00;1.00;;;;;;;;5053660;28;8876;-83
2024/02/09 12:16:26;;;;;;;;;1.75;0.75;;;;;;;;5053278;28;8870;-77
2024/02/09 12:18:56;;;;;;;;;1.00;1.00;;;;;;;;5053448;28;8977;-75
2024/02/09 12:21:24;;;;;;;;;2.25;2.25;;;;;;;;5052729;28;8842;-77
2024/02/09 12:23:53;;;;;;;;;1.25;1.25;;;;;;;;5050467;28;8849;-74
2024/02/09 12:26:20;;;;;;;;;1.25;1.25;;;;;;;;5050753;28;8881;-76
2024/02/09 12:28:47;;;;;;;;;1.75;1.75;;;;;;;;5051030;28;8966;-73
2024/02/09 12:31:16;;;;;;;;;1.50;1.50;;;;;;;;5051560;28;8825;-73
2024/02/09 12:33:44;;;;;;;;;3.00;2.00;;;;;;;;5054798;28;8883;-74
2024/02/09 12:36:14;;;;;;;;;2.00;1.00;;;;;;;;5051160;28;8849;-75
2024/02/09 12:38:42;;;;;;;;;3.50;1.50;;;;;;;;5050526;28;8939;-74
2024/02/09 12:41:09;;;;;;;;;4.00;1.50;;;;;;;;5049516;28;8862;-73
2024/02/09 12:43:37;;;;;;;;;5.00;2.00;;;;;;;;5050188;28;8915;-73
2024/02/09 12:46:06;;;;;;;;;0.75;0.75;;;;;;;;5050313;28;9822;-76
2024/02/09 12:48:36;;;;;;;;;2.75;2.75;;;;;;;;5050336;28;8833;-73
2024/02/09 12:51:04;;;;;;;;;4.00;2.50;;;;;;;;5050794;28;8857;-77
2024/02/09 12:53:34;;;;;;;;;3.50;1.75;;;;;;;;5052733;28;8880;-74
2024/02/09 12:56:02;;;;;;;;;3.00;1.50;;;;;;;;5039086;28;8911;-73
2024/02/09 12:58:30;;;;;;;;;3.00;1.50;;;;;;;;5050249;28;8857;-78
2024/02/09 13:00:57;;;;;;;;;2.25;2.25;;;;;;;;5049725;28;8832;-75
2024/02/09 13:03:26;;;;;;;;;2.75;1.00;;;;;;;;5049302;28;8861;-73
2024/02/09 13:05:53;;;;;;;;;2.00;2.00;;;;;;;;5049925;28;8881;-75
2024/02/09 13:08:22;;;;;;;;;2.00;1.25;;;;;;;;5049357;28;8837;-74
2024/02/09 13:10:50;;;;;;;;;1.00;1.00;;;;;;;;5049548;28;8857;-77
2024/02/09 13:13:18;;;;;;;;;1.50;0.75;;;;;;;;5049497;28;8976;-76
2024/02/09 13:15:45;;;;;;;;;1.25;1.00;;;;;;;;5049346;28;9000;-76
2024/02/09 13:18:12;;;;;;;;;2.50;2.00;;;;;;;;5049012;28;8947;-77
2024/02/09 13:20:42;;;;;;;;;2.00;2.00;;;;;;;;5049306;28;8879;-73
2024/02/09 13:23:11;;;;;;;;;3.75;2.00;;;;;;;;5049467;28;8865;-74
2024/02/09 13:25:40;;;;;;;;;3.00;2.00;;;;;;;;5049070;28;8841;-79
2024/02/09 13:28:09;;;;;;;;;2.00;2.00;;;;;;;;5048893;28;8830;-74
2024/02/09 13:30:38;;;;;;;;;1.75;1.75;;;;;;;;5048695;28;8808;-80
2024/02/09 13:33:05;;;;;;;;;3.75;2.00;;;;;;;;5049244;28;8854;-76
2024/02/09 13:35:32;;;;;;;;;2.50;2.00;;;;;;;;5049310;28;8869;-75
2024/02/09 13:38:00;;;;;;;;;2.25;2.00;;;;;;;;5049451;28;8857;-80
2024/02/09 13:40:29;;;;;;;;;4.50;3.00;;;;;;;;5049913;28;8959;-74
2024/02/09 13:42:57;;;;;;;;;3.00;2.25;;;;;;;;5049677;28;8876;-75
2024/02/09 13:45:26;;;;;;;;;5.00;1.75;;;;;;;;5049612;28;8860;-79
2024/02/09 13:47:55;;;;;;;;;2.25;2.25;;;;;;;;5049629;28;8853;-77
2024/02/09 13:50:23;;;;;;;;;5.25;3.50;;;;;;;;5049682;28;8885;-78
2024/02/09 13:52:52;;;;;;;;;2.00;2.00;;;;;;;;5050281;28;8981;-75
2024/02/09 13:55:22;;;;;;;;;2.25;1.00;;;;;;;;5050516;28;9677;-75
2024/02/09 13:57:51;;;;;;;;;4.25;2.25;;;;;;;;5051056;28;9268;-75
2024/02/09 14:00:19;;;;;;;;;5.00;3.25;;;;;;;;5050688;28;8911;-74
2024/02/09 14:02:48;;;;;;;;;4.00;3.00;;;;;;;;5051085;28;8865;-79
2024/02/09 14:05:16;;;;;;;;;4.50;2.75;;;;;;;;5050630;28;8870;-75
2024/02/09 14:07:43;;;;;;;;;5.50;3.00;;;;;;;;5051382;28;8869;-82
2024/02/09 14:10:11;;;;;;;;;4.00;2.75;;;;;;;;5050225;28;8838;-73
2024/02/09 14:12:39;;;;;;;;;2.00;2.00;;;;;;;;5048698;28;8868;-78
2024/02/09 14:15:08;;;;;;;;;3.75;2.00;;;;;;;;5048229;28;9651;-78
2024/02/09 14:17:36;;;;;;;;;3.75;3.00;;;;;;;;5048036;28;8873;-74
2024/02/09 14:20:05;;;;;;;;;9.00;3.25;;;;;;;;5048018;28;9706;-74
2024/02/09 14:22:33;;;;;;;;;6.25;3.50;;;;;;;;5048378;28;8873;-73
2024/02/09 14:25:01;;;;;;;;;3.25;3.25;;;;;;;;5048635;28;8865;-74
2024/02/09 14:27:29;;;;;;;;;5.00;4.00;;;;;;;;5048559;28;8838;-76
2024/02/09 14:29:58;;;;;;;;;7.00;7.00;;;;;;;;5048422;28;8903;-78
2024/02/09 14:32:25;;;;;;;;;8.25;6.50;;;;;;;;5048299;28;8806;-77
2024/02/09 14:34:52;;;;;;;;;6.00;6.00;;;;;;;;5048121;28;8854;-75
2024/02/09 14:37:22;;;;;;;;;5.50;5.50;;;;;;;;5048153;28;8864;-75
2024/02/09 14:39:49;;;;;;;;;5.00;5.00;;;;;;;;5048083;28;9259;-73
2024/02/09 14:42:16;;;;;;;;;8.00;6.50;;;;;;;;5047913;28;8930;-74
2024/02/09 14:44:47;;;;;;;;;8.00;5.00;;;;;;;;5048072;28;8861;-73
2024/02/09 14:47:17;;;;;;;;;5.50;5.25;;;;;;;;5047798;28;9663;-77
2024/02/09 14:49:47;;;;;;;;;7.50;4.50;;;;;;;;5048249;28;8858;-74
2024/02/09 14:52:15;;;;;;;;;6.75;5.50;;;;;;;;5048179;28;8853;-73
2024/02/09 14:54:45;;;;;;;;;2.50;2.50;;;;;;;;5049088;28;8853;-78
2024/02/09 14:57:13;;;;;;;;;3.00;3.00;;;;;;;;5051148;28;9633;-76
2024/02/09 14:59:40;;;;;;;;;3.00;2.50;;;;;;;;5054626;28;8944;-75
2024/02/09 15:02:10;;;;;;;;;2.75;1.50;;;;;;;;5049760;28;8813;-76
2024/02/09 15:04:40;;;;;;;;;2.25;2.25;;;;;;;;5047968;28;8873;-74
2024/02/09 15:07:08;;;;;;;;;3.00;1.50;;;;;;;;5048581;28;8838;-79
2024/02/09 15:09:35;;;;;;;;;3.25;2.25;;;;;;;;5048206;28;8873;-77
2024/02/09 15:12:05;;;;;;;;;3.25;2.00;;;;;;;;5047875;28;8864;-83
2024/02/09 15:14:33;;;;;;;;;1.25;1.25;;;;;;;;5047968;28;8907;-80
2024/02/09 15:17:01;;;;;;;;;3.75;2.25;;;;;;;;5048109;28;8884;-79
2024/02/09 15:19:31;;;;;;;;;3.00;3.00;;;;;;;;5048798;28;8883;-78
2024/02/09 15:21:58;;;;;;;;;3.00;3.00;;;;;;;;5037007;28;8865;-74
2024/02/09 15:24:26;;;;;;;;;7.25;3.50;;;;;;;;5047867;28;8868;-77
2024/02/09 15:26:53;;;;;;;;;2.75;2.75;;;;;;;;5047920;28;8874;-76
2024/02/09 15:29:23;;;;;;;;;7.00;4.00;;;;;;;;5047624;28;8975;-76
2024/02/09 15:31:51;;;;;;;;;5.75;4.50;;;;;;;;5047226;28;8805;-76
2024/02/09 15:34:18;;;;;;;;;7.00;3.75;;;;;;;;5048135;28;8870;-80
2024/02/09 15:36:45;;;;;;;;;10.00;5.50;;;;;;;;5047892;28;8887;-80
2024/02/09 15:39:14;;;;;;;;;3.00;3.00;;;;;;;;5049394;28;8866;-74
2024/02/09 15:41:43;;;;;;;;;4.50;4.50;;;;;;;;5052697;28;8872;-81
2024/02/09 15:44:10;;;;;;;;;11.00;7.00;;;;;;;;5051513;28;8884;-75
2024/02/09 15:46:39;;;;;;;;;6.25;6.25;;;;;;;;5050045;28;8865;-78
2024/02/09 15:49:06;;;;;;;;;9.00;7.75;;;;;;;;5051689;28;8885;-80
2024/02/09 15:51:34;;;;;;;;;6.75;6.75;;;;;;;;5051608;28;8881;-79
2024/02/09 15:54:01;;;;;;;;;5.00;5.00;;;;;;;;5052128;28;8860;-79
2024/02/09 15:56:32;;;;;;;;;6.50;6.00;;;;;;;;5051855;28;8854;-73
2024/02/09 15:58:59;;;;;;;;;6.25;4.75;;;;;;;;5047679;28;8849;-74
2024/02/09 16:01:33;;;;;;;;;7.50;4.00;;;;;;;;5047523;28;8798;-77
2024/02/09 16:04:01;;;;;;;;;4.00;4.00;;;;;;;;5046778;28;8869;-77
2024/02/09 16:06:30;;;;;;;;;3.75;3.75;;;;;;;;5047678;28;9537;-80
2024/02/09 16:08:57;;;;;;;;;7.50;5.50;;;;;;;;5035845;28;9644;-75
2024/02/09 16:11:30;;;;;;;;;5.75;5.00;;;;;;;;5047186;28;8854;-76
2024/02/09 16:13:58;;;;;;;;;7.00;3.50;;;;;;;;5047726;28;8845;-77
2024/02/09 16:16:27;;;;;;;;;5.75;5.25;;;;;;;;5049188;28;8868;-75
2024/02/09 16:18:55;;;;;;;;;5.50;2.75;;;;;;;;5050830;28;8866;-79
2024/02/09 16:21:25;;;;;;;;;4.25;4.25;;;;;;;;5050840;28;8885;-78
2024/02/09 16:23:52;;;;;;;;;4.00;4.00;;;;;;;;5050730;28;9624;-81
2024/02/09 16:26:19;;;;;;;;;4.00;3.75;;;;;;;;5050798;28;8877;-76
2024/02/09 16:28:47;;;;;;;;;6.00;6.00;;;;;;;;5050510;28;8850;-80
2024/02/09 16:31:14;;;;;;;;;4.75;4.00;;;;;;;;5050444;28;8827;-81
2024/02/09 16:33:43;;;;;;;;;5.25;4.75;;;;;;;;5050556;28;8861;-80
2024/02/09 16:36:11;;;;;;;;;4.75;4.00;;;;;;;;5050311;28;8860;-76
2024/02/09 16:38:40;;;;;;;;;5.75;5.75;;;;;;;;5050295;28;8942;-77
2024/02/09 16:41:10;;;;;;;;;5.50;4.00;;;;;;;;5050236;28;8972;-75
2024/02/09 16:43:38;;;;;;;;;5.50;5.50;;;;;;;;5050384;28;8873;-78
2024/02/09 16:46:05;;;;;;;;;6.50;6.00;;;;;;;;5050082;28;8858;-79
2024/02/09 16:48:32;;;;;;;;;4.50;4.50;;;;;;;;5050019;28;8838;-77